Home > Products > Valid Products > TAF

000
FTUS43 KSGF 310200 AAA
TAFJLN
TAF AMD
KJLN 310223Z 3102/3124 VRB03KT 6SM BR SCT008 OVC015
      TEMPO 3103/3106 BKN008 OVC015
     FM310600 VRB03KT 5SM BR BKN008 OVC015
     FM311400 VRB04KT 6SM -SHRA BR OVC025
     FM311800 VRB04KT P6SM SCT025 BKN040=



000
FTUS43 KSGF 302300
TAFJLN
TAF
KJLN 302334Z 3100/3124 VRB03KT 4SM -SHRA BR SCT008 BKN015 OVC040
     FM310300 VRB03KT 5SM BR VCSH OVC020
     FM311200 VRB04KT 6SM -SHRA BR OVC025
     FM311800 VRB04KT P6SM SCT025 BKN040=



000
FTUS43 KSGF 302300
TAFSGF
TAF
KSGF 302334Z 3100/3124 20005KT P6SM -SHRA SCT030 OVC050
     FM310400 VRB03KT 5SM BR SCT015 BKN030 OVC050
     FM311200 14005KT 6SM -SHRA BR OVC025
     FM311800 14006KT P6SM SCT025 BKN040=



000
FTUS43 KSGF 302100 AAA
TAFSGF
TAF AMD
KSGF 302112Z 3021/3118 VRB04KT P6SM -SHRA BKN015 OVC050
     FM310300 VRB03KT 5SM BR VCSH OVC050
     FM311400 14005KT 6SM -SHRA BR OVC050=



000
FTUS43 KSGF 301900 AAA
TAFJLN
TAF AMD
KJLN 301921Z 3019/3118 VRB03KT 5SM -SHRA BR OVC040
      TEMPO 3019/3023 2SM RA BR OVC030
     FM310300 VRB03KT 5SM BR VCSH OVC060
     FM311400 VRB05KT 6SM -SHRA BR OVC050=



000
FTUS43 KSGF 301700
TAFSGF
TAF
KSGF 301720Z 3018/3118 VRB05KT P6SM VCSH OVC070
      TEMPO 3018/3022 4SM RA BR OVC050
     FM310300 VRB03KT 5SM BR VCSH OVC060
     FM311400 14005KT 6SM -SHRA BR OVC050=



000
FTUS43 KSGF 301700
TAFJLN
TAF
KJLN 301720Z 3018/3118 VRB03KT 6SM -SHRA BR OVC050
      TEMPO 3020/3024 4SM RA BR OVC050
     FM310300 VRB03KT 5SM BR VCSH OVC060
     FM311400 VRB05KT 6SM -SHRA BR OVC050=



000
FTUS43 KSGF 301100
TAFJLN
TAF
KJLN 301120Z 3012/3112 VRB05KT P6SM OVC060
      TEMPO 3012/3016 -SHRA OVC050
     FM301600 17006KT P6SM -SHRA OVC050
     FM302200 VRB05KT P6SM OVC050
     FM310900 VRB02KT 5SM BR OVC025=



000
FTUS43 KSGF 301100
TAFSGF
TAF
KSGF 301120Z 3012/3112 VRB03KT P6SM BKN060
     FM301400 20004KT P6SM BKN050 OVC060
      TEMPO 3014/3018 -SHRA OVC050
     FM301800 VRB05KT P6SM OVC050=



000
FTUS43 KSGF 300800 AAA
TAFJLN
TAF AMD
KJLN 300851Z 3009/3106 VRB03KT P6SM BKN060 OVC110
      TEMPO 3009/3012 -SHRA BKN050 OVC070
     FM301200 VRB04KT P6SM VCSH BKN070 OVC120
     FM301700 21006KT P6SM VCSH OVC050
     FM302200 19005KT P6SM OVC025=



000
FTUS43 KSGF 300500
TAFSGF
TAF
KSGF 300520Z 3006/3106 VRB03KT P6SM BKN100
     FM301400 23006KT P6SM VCSH BKN070 OVC200
     FM301800 23006KT P6SM VCSH OVC050=



000
FTUS43 KSGF 300500
TAFJLN
TAF
KJLN 300520Z 3006/3106 VRB03KT P6SM BKN150
     FM301200 VRB04KT P6SM VCSH BKN070 OVC120
     FM301700 21006KT P6SM VCSH OVC050
     FM302200 19005KT P6SM OVC025=



000
FTUS43 KSGF 292300
TAFJLN
TAF
KJLN 292320Z 3000/3024 28006KT P6SM BKN080
     FM300100 VRB03KT P6SM SCT100
     FM301000 VRB04KT P6SM VCSH BKN070 OVC120=



000
FTUS43 KSGF 292300
TAFSGF
TAF
KSGF 292320Z 3000/3024 32006KT P6SM BKN090
     FM300100 VRB03KT P6SM SCT100
     FM301100 VRB04KT P6SM VCSH BKN070 OVC200=



000
FTUS43 KSGF 291700
TAFSGF
TAF
KSGF 291720Z 2918/3018 32006KT P6SM FEW045 SCT080
     FM300100 VRB03KT P6SM SCT200
     FM301100 VRB04KT P6SM BKN070 OVC200=



000
FTUS43 KSGF 291700
TAFJLN
TAF
KJLN 291720Z 2918/3018 31006KT P6SM BKN080
     FM300100 VRB03KT P6SM FEW100 SCT200
     FM301000 VRB04KT P6SM VCSH BKN070 OVC120=



000
FTUS43 KSGF 291100
TAFSGF
TAF
KSGF 291120Z 2912/3012 VRB02KT P6SM FEW070
     FM291600 33006KT P6SM SCT070
     FM300100 VRB02KT P6SM SCT100=



000
FTUS43 KSGF 291100
TAFJLN
TAF
KJLN 291120Z 2912/3012 VRB02KT P6SM SCT080
     FM291500 33006KT P6SM BKN080
     FM300100 VRB03KT P6SM SCT100=



000
FTUS43 KSGF 290500
TAFSGF
TAF
KSGF 290520Z 2906/3006 VRB04KT P6SM SKC
     FM291700 34006KT P6SM SCT040
     FM300100 VRB04KT P6SM SKC=



000
FTUS43 KSGF 290500
TAFJLN
TAF
KJLN 290520Z 2906/3006 VRB04KT P6SM SKC
     FM291600 33006KT P6SM SCT040
     FM300100 VRB04KT P6SM SKC=



000
FTUS43 KSGF 282300
TAFJLN
TAF
KJLN 282320Z 2900/2924 02008KT P6SM SKC
     FM290200 VRB04KT P6SM SKC
     FM291600 33006KT P6SM SCT040=



000
FTUS43 KSGF 282300
TAFSGF
TAF
KSGF 282320Z 2900/2924 35010KT P6SM SKC
     FM290300 VRB04KT P6SM SKC
     FM291700 34006KT P6SM SCT040=



000
FTUS43 KSGF 281700
TAFJLN
TAF
KJLN 281730Z 2818/2918 36010KT P6SM SKC
     FM290200 VRB04KT P6SM SKC
     FM291500 26005KT P6SM SCT090=



000
FTUS43 KSGF 281700
TAFSGF
TAF
KSGF 281730Z 2818/2918 34010KT P6SM SCT040
     FM290100 VRB04KT P6SM SKC
     FM291500 23005KT P6SM SCT100=



000
FTUS43 KSGF 281100
TAFSGF
TAF
KSGF 281126Z 2812/2912 34007KT P6SM SKC
     FM281700 35012KT P6SM SKC
     FM290100 02004KT P6SM SKC=



000
FTUS43 KSGF 281100
TAFJLN
TAF
KJLN 281126Z 2812/2912 36004KT P6SM SKC
     FM281500 35010KT P6SM SKC
     FM290200 04004KT P6SM SKC=



000
FTUS43 KSGF 280500
TAFJLN
TAF
KJLN 280520Z 2806/2906 VRB04KT P6SM SKC
     FM281500 35010KT P6SM SKC
     FM290200 VRB04KT P6SM SKC=



000
FTUS43 KSGF 280500
TAFSGF
TAF
KSGF 280520Z 2806/2906 34007KT P6SM SKC
     FM281700 35012KT P6SM SKC
     FM290100 34004KT P6SM SKC=



    US Dept of Commerce
    National Oceanic and Atmospheric Administration
    National Weather Service
    1325 East West Highway
    Silver Spring, MD 20910
    Page Author: NWS Internet Services Team
Disclaimer
Information Quality
Credits
Glossary
Privacy Policy
Freedom of Information Act (FOIA)
About Us
Career Opportunities